sensor_id;sensor_type;location;lat;lon;timestamp;P1;durP1;ratioP1;P2;durP2;ratioP2
7193;SDS011;3638;48.820;9.244;2022-11-20T00:00:39;16.77;;;11.87;;
7193;SDS011;3638;48.820;9.244;2022-11-20T00:03:05;19.30;;;12.30;;
7193;SDS011;3638;48.820;9.244;2022-11-20T00:05:34;17.97;;;11.50;;
7193;SDS011;3638;48.820;9.244;2022-11-20T00:08:01;16.67;;;12.50;;
7193;SDS011;3638;48.820;9.244;2022-11-20T00:10:28;15.30;;;12.20;;
7193;SDS011;3638;48.820;9.244;2022-11-20T00:12:55;17.30;;;12.67;;
7193;SDS011;3638;48.820;9.244;2022-11-20T00:15:23;17.93;;;12.33;;
7193;SDS011;3638;48.820;9.244;2022-11-20T00:17:50;14.57;;;11.93;;
7193;SDS011;3638;48.820;9.244;2022-11-20T00:20:17;17.30;;;13.07;;
7193;SDS011;3638;48.820;9.244;2022-11-20T00:22:46;16.87;;;13.10;;
7193;SDS011;3638;48.820;9.244;2022-11-20T00:25:13;19.10;;;12.67;;
7193;SDS011;3638;48.820;9.244;2022-11-20T00:27:40;19.57;;;13.30;;
7193;SDS011;3638;48.820;9.244;2022-11-20T00:30:07;16.97;;;12.50;;
7193;SDS011;3638;48.820;9.244;2022-11-20T00:32:35;15.73;;;12.43;;
7193;SDS011;3638;48.820;9.244;2022-11-20T00:35:02;17.27;;;12.63;;
7193;SDS011;3638;48.820;9.244;2022-11-20T00:37:30;16.57;;;12.07;;
7193;SDS011;3638;48.820;9.244;2022-11-20T00:39:58;17.00;;;12.80;;
7193;SDS011;3638;48.820;9.244;2022-11-20T00:42:25;15.90;;;12.57;;
7193;SDS011;3638;48.820;9.244;2022-11-20T00:44:52;14.83;;;12.60;;
7193;SDS011;3638;48.820;9.244;2022-11-20T00:47:19;15.27;;;12.63;;
7193;SDS011;3638;48.820;9.244;2022-11-20T00:49:46;15.83;;;12.40;;
7193;SDS011;3638;48.820;9.244;2022-11-20T00:52:13;15.73;;;12.80;;
7193;SDS011;3638;48.820;9.244;2022-11-20T00:54:40;15.90;;;12.23;;
7193;SDS011;3638;48.820;9.244;2022-11-20T00:57:08;21.50;;;15.57;;
7193;SDS011;3638;48.820;9.244;2022-11-20T00:59:35;15.63;;;12.33;;
7193;SDS011;3638;48.820;9.244;2022-11-20T01:02:02;15.60;;;12.13;;
7193;SDS011;3638;48.820;9.244;2022-11-20T01:04:29;15.80;;;11.47;;
7193;SDS011;3638;48.820;9.244;2022-11-20T01:06:56;15.83;;;12.80;;
7193;SDS011;3638;48.820;9.244;2022-11-20T01:09:23;14.57;;;11.27;;
7193;SDS011;3638;48.820;9.244;2022-11-20T01:11:50;14.57;;;11.50;;
7193;SDS011;3638;48.820;9.244;2022-11-20T01:14:18;13.93;;;11.43;;
7193;SDS011;3638;48.820;9.244;2022-11-20T01:16:47;14.20;;;11.40;;
7193;SDS011;3638;48.820;9.244;2022-11-20T01:19:16;15.77;;;11.80;;
7193;SDS011;3638;48.820;9.244;2022-11-20T01:21:47;14.37;;;11.73;;
7193;SDS011;3638;48.820;9.244;2022-11-20T01:24:17;16.93;;;12.50;;
7193;SDS011;3638;48.820;9.244;2022-11-20T01:26:47;14.10;;;10.87;;
7193;SDS011;3638;48.820;9.244;2022-11-20T01:29:16;14.70;;;10.93;;
7193;SDS011;3638;48.820;9.244;2022-11-20T01:31:46;13.73;;;11.37;;
7193;SDS011;3638;48.820;9.244;2022-11-20T01:34:14;13.73;;;11.30;;
7193;SDS011;3638;48.820;9.244;2022-11-20T01:36:43;13.10;;;11.43;;
7193;SDS011;3638;48.820;9.244;2022-11-20T01:39:12;14.70;;;11.70;;
7193;SDS011;3638;48.820;9.244;2022-11-20T01:41:42;13.30;;;10.80;;
7193;SDS011;3638;48.820;9.244;2022-11-20T01:47:15;12.43;;;10.40;;
7193;SDS011;3638;48.820;9.244;2022-11-20T01:49:48;12.60;;;10.70;;
7193;SDS011;3638;48.820;9.244;2022-11-20T01:52:20;15.67;;;11.53;;
7193;SDS011;3638;48.820;9.244;2022-11-20T01:54:51;14.87;;;10.50;;
7193;SDS011;3638;48.820;9.244;2022-11-20T01:57:23;13.10;;;10.33;;
7193;SDS011;3638;48.820;9.244;2022-11-20T01:59:57;12.63;;;10.63;;
7193;SDS011;3638;48.820;9.244;2022-11-20T02:02:29;12.87;;;10.37;;
7193;SDS011;3638;48.820;9.244;2022-11-20T02:04:56;11.17;;;9.67;;
7193;SDS011;3638;48.820;9.244;2022-11-20T02:07:30;10.87;;;9.27;;
7193;SDS011;3638;48.820;9.244;2022-11-20T02:09:57;10.93;;;9.80;;
7193;SDS011;3638;48.820;9.244;2022-11-20T02:12:24;11.07;;;9.13;;
7193;SDS011;3638;48.820;9.244;2022-11-20T02:15:10;9.07;;;8.13;;
7193;SDS011;3638;48.820;9.244;2022-11-20T02:17:37;9.67;;;8.67;;
7193;SDS011;3638;48.820;9.244;2022-11-20T02:20:04;11.67;;;9.53;;
7193;SDS011;3638;48.820;9.244;2022-11-20T02:22:34;11.30;;;8.93;;
7193;SDS011;3638;48.820;9.244;2022-11-20T02:25:09;10.83;;;8.90;;
7193;SDS011;3638;48.820;9.244;2022-11-20T02:27:37;12.77;;;8.70;;
7193;SDS011;3638;48.820;9.244;2022-11-20T02:30:04;11.87;;;9.13;;
7193;SDS011;3638;48.820;9.244;2022-11-20T02:32:34;11.57;;;8.80;;
7193;SDS011;3638;48.820;9.244;2022-11-20T02:35:06;10.90;;;9.03;;
7193;SDS011;3638;48.820;9.244;2022-11-20T02:37:35;12.10;;;9.30;;
7193;SDS011;3638;48.820;9.244;2022-11-20T02:40:06;11.60;;;8.57;;
7193;SDS011;3638;48.820;9.244;2022-11-20T02:42:36;10.10;;;8.53;;
7193;SDS011;3638;48.820;9.244;2022-11-20T02:45:03;8.13;;;7.33;;
7193;SDS011;3638;48.820;9.244;2022-11-20T02:47:31;9.97;;;6.90;;
7193;SDS011;3638;48.820;9.244;2022-11-20T02:49:59;8.00;;;6.80;;
7193;SDS011;3638;48.820;9.244;2022-11-20T02:52:26;7.63;;;6.63;;
7193;SDS011;3638;48.820;9.244;2022-11-20T02:54:53;8.17;;;7.13;;
7193;SDS011;3638;48.820;9.244;2022-11-20T02:57:20;7.57;;;6.23;;
7193;SDS011;3638;48.820;9.244;2022-11-20T02:59:48;6.23;;;5.63;;
7193;SDS011;3638;48.820;9.244;2022-11-20T03:02:15;5.30;;;4.80;;
7193;SDS011;3638;48.820;9.244;2022-11-20T03:04:42;6.37;;;5.43;;
7193;SDS011;3638;48.820;9.244;2022-11-20T03:07:09;6.37;;;4.70;;
7193;SDS011;3638;48.820;9.244;2022-11-20T03:09:36;5.33;;;4.83;;
7193;SDS011;3638;48.820;9.244;2022-11-20T03:12:03;6.73;;;4.80;;
7193;SDS011;3638;48.820;9.244;2022-11-20T03:14:31;5.07;;;4.67;;
7193;SDS011;3638;48.820;9.244;2022-11-20T03:16:59;4.93;;;4.53;;
7193;SDS011;3638;48.820;9.244;2022-11-20T03:19:26;5.50;;;4.97;;
7193;SDS011;3638;48.820;9.244;2022-11-20T03:21:53;4.97;;;4.47;;
7193;SDS011;3638;48.820;9.244;2022-11-20T03:24:20;5.30;;;4.30;;
7193;SDS011;3638;48.820;9.244;2022-11-20T03:26:47;4.53;;;4.10;;
7193;SDS011;3638;48.820;9.244;2022-11-20T03:29:14;5.77;;;4.30;;
7193;SDS011;3638;48.820;9.244;2022-11-20T03:31:41;5.37;;;4.13;;
7193;SDS011;3638;48.820;9.244;2022-11-20T03:34:10;4.60;;;4.20;;
7193;SDS011;3638;48.820;9.244;2022-11-20T03:36:38;4.53;;;4.13;;
7193;SDS011;3638;48.820;9.244;2022-11-20T03:39:08;4.60;;;4.20;;
7193;SDS011;3638;48.820;9.244;2022-11-20T03:41:35;5.40;;;4.50;;
7193;SDS011;3638;48.820;9.244;2022-11-20T03:44:06;4.70;;;4.30;;
7193;SDS011;3638;48.820;9.244;2022-11-20T03:46:35;5.03;;;4.53;;
7193;SDS011;3638;48.820;9.244;2022-11-20T03:49:02;5.13;;;4.63;;
7193;SDS011;3638;48.820;9.244;2022-11-20T03:51:32;8.77;;;4.57;;
7193;SDS011;3638;48.820;9.244;2022-11-20T03:54:01;4.33;;;3.93;;
7193;SDS011;3638;48.820;9.244;2022-11-20T03:56:34;4.90;;;4.40;;
7193;SDS011;3638;48.820;9.244;2022-11-20T03:59:04;5.20;;;4.77;;
7193;SDS011;3638;48.820;9.244;2022-11-20T04:01:32;4.53;;;4.13;;
7193;SDS011;3638;48.820;9.244;2022-11-20T04:04:02;5.13;;;4.50;;
7193;SDS011;3638;48.820;9.244;2022-11-20T04:06:30;5.17;;;4.67;;
7193;SDS011;3638;48.820;9.244;2022-11-20T04:09:01;4.90;;;4.23;;
7193;SDS011;3638;48.820;9.244;2022-11-20T04:11:28;4.57;;;4.17;;
7193;SDS011;3638;48.820;9.244;2022-11-20T04:13:57;4.70;;;4.20;;
7193;SDS011;3638;48.820;9.244;2022-11-20T04:16:26;4.60;;;4.20;;
7193;SDS011;3638;48.820;9.244;2022-11-20T04:18:57;4.87;;;4.23;;
7193;SDS011;3638;48.820;9.244;2022-11-20T04:21:25;4.77;;;4.37;;
7193;SDS011;3638;48.820;9.244;2022-11-20T04:23:54;7.23;;;5.20;;
7193;SDS011;3638;48.820;9.244;2022-11-20T04:26:22;6.50;;;4.50;;
7193;SDS011;3638;48.820;9.244;2022-11-20T04:28:52;4.40;;;4.00;;
7193;SDS011;3638;48.820;9.244;2022-11-20T04:31:20;4.80;;;4.30;;
7193;SDS011;3638;48.820;9.244;2022-11-20T04:33:48;5.00;;;4.47;;
7193;SDS011;3638;48.820;9.244;2022-11-20T04:36:16;5.93;;;4.63;;
7193;SDS011;3638;48.820;9.244;2022-11-20T04:38:45;5.77;;;5.17;;
7193;SDS011;3638;48.820;9.244;2022-11-20T04:41:17;5.90;;;4.87;;
7193;SDS011;3638;48.820;9.244;2022-11-20T04:43:46;5.03;;;4.63;;
7193;SDS011;3638;48.820;9.244;2022-11-20T04:46:15;5.20;;;4.77;;
7193;SDS011;3638;48.820;9.244;2022-11-20T04:48:42;5.00;;;4.50;;
7193;SDS011;3638;48.820;9.244;2022-11-20T04:51:09;5.03;;;4.53;;
7193;SDS011;3638;48.820;9.244;2022-11-20T04:53:37;4.77;;;4.37;;
7193;SDS011;3638;48.820;9.244;2022-11-20T04:56:05;4.80;;;4.40;;
7193;SDS011;3638;48.820;9.244;2022-11-20T04:58:36;5.23;;;4.83;;
7193;SDS011;3638;48.820;9.244;2022-11-20T05:01:04;5.03;;;4.53;;
7193;SDS011;3638;48.820;9.244;2022-11-20T05:03:33;4.60;;;4.20;;
7193;SDS011;3638;48.820;9.244;2022-11-20T05:06:00;5.90;;;4.63;;
7193;SDS011;3638;48.820;9.244;2022-11-20T05:08:28;6.27;;;5.07;;
7193;SDS011;3638;48.820;9.244;2022-11-20T05:10:59;5.67;;;4.37;;
7193;SDS011;3638;48.820;9.244;2022-11-20T05:13:27;4.43;;;4.03;;
7193;SDS011;3638;48.820;9.244;2022-11-20T05:15:59;5.43;;;4.53;;
7193;SDS011;3638;48.820;9.244;2022-11-20T05:18:28;4.33;;;3.93;;
7193;SDS011;3638;48.820;9.244;2022-11-20T05:20:55;4.67;;;4.27;;
7193;SDS011;3638;48.820;9.244;2022-11-20T05:23:23;4.77;;;4.27;;
7193;SDS011;3638;48.820;9.244;2022-11-20T05:25:51;4.67;;;4.27;;
7193;SDS011;3638;48.820;9.244;2022-11-20T05:28:19;4.53;;;4.13;;
7193;SDS011;3638;48.820;9.244;2022-11-20T05:30:47;4.80;;;4.33;;
7193;SDS011;3638;48.820;9.244;2022-11-20T05:33:15;4.70;;;4.30;;
7193;SDS011;3638;48.820;9.244;2022-11-20T05:35:43;5.63;;;4.20;;
7193;SDS011;3638;48.820;9.244;2022-11-20T05:38:10;4.53;;;4.13;;
7193;SDS011;3638;48.820;9.244;2022-11-20T05:40:37;5.50;;;4.50;;
7193;SDS011;3638;48.820;9.244;2022-11-20T05:43:04;4.33;;;3.93;;
7193;SDS011;3638;48.820;9.244;2022-11-20T05:45:31;4.50;;;4.10;;
7193;SDS011;3638;48.820;9.244;2022-11-20T05:47:58;6.50;;;4.03;;
7193;SDS011;3638;48.820;9.244;2022-11-20T05:50:27;4.50;;;4.10;;
7193;SDS011;3638;48.820;9.244;2022-11-20T05:52:54;4.63;;;4.23;;
7193;SDS011;3638;48.820;9.244;2022-11-20T05:55:24;6.23;;;4.10;;
7193;SDS011;3638;48.820;9.244;2022-11-20T05:57:51;5.80;;;4.30;;
7193;SDS011;3638;48.820;9.244;2022-11-20T06:00:19;3.93;;;3.63;;
7193;SDS011;3638;48.820;9.244;2022-11-20T06:02:46;6.57;;;4.10;;
7193;SDS011;3638;48.820;9.244;2022-11-20T06:05:14;5.10;;;4.40;;
7193;SDS011;3638;48.820;9.244;2022-11-20T06:07:42;4.20;;;3.73;;
7193;SDS011;3638;48.820;9.244;2022-11-20T06:10:09;3.90;;;3.60;;
7193;SDS011;3638;48.820;9.244;2022-11-20T06:12:37;4.67;;;4.17;;
7193;SDS011;3638;48.820;9.244;2022-11-20T06:15:04;4.10;;;3.70;;
7193;SDS011;3638;48.820;9.244;2022-11-20T06:17:32;4.23;;;3.87;;
7193;SDS011;3638;48.820;9.244;2022-11-20T06:19:59;4.43;;;3.70;;
7193;SDS011;3638;48.820;9.244;2022-11-20T06:22:26;4.13;;;3.83;;
7193;SDS011;3638;48.820;9.244;2022-11-20T06:24:55;4.07;;;3.77;;
7193;SDS011;3638;48.820;9.244;2022-11-20T06:27:22;4.10;;;3.80;;
7193;SDS011;3638;48.820;9.244;2022-11-20T06:29:48;4.47;;;3.70;;
7193;SDS011;3638;48.820;9.244;2022-11-20T06:32:15;4.53;;;3.70;;
7193;SDS011;3638;48.820;9.244;2022-11-20T06:34:42;4.23;;;3.83;;
7193;SDS011;3638;48.820;9.244;2022-11-20T06:37:09;4.43;;;3.70;;
7193;SDS011;3638;48.820;9.244;2022-11-20T06:39:36;3.97;;;3.67;;
7193;SDS011;3638;48.820;9.244;2022-11-20T06:42:04;3.90;;;3.60;;
7193;SDS011;3638;48.820;9.244;2022-11-20T06:44:31;4.37;;;3.70;;
7193;SDS011;3638;48.820;9.244;2022-11-20T06:46:58;4.47;;;4.07;;
7193;SDS011;3638;48.820;9.244;2022-11-20T06:49:25;3.73;;;3.43;;
7193;SDS011;3638;48.820;9.244;2022-11-20T06:51:52;6.10;;;3.93;;
7193;SDS011;3638;48.820;9.244;2022-11-20T06:54:19;3.90;;;3.60;;
7193;SDS011;3638;48.820;9.244;2022-11-20T06:56:46;4.03;;;3.70;;
7193;SDS011;3638;48.820;9.244;2022-11-20T06:59:15;4.17;;;3.63;;
7193;SDS011;3638;48.820;9.244;2022-11-20T07:01:42;4.33;;;3.93;;
7193;SDS011;3638;48.820;9.244;2022-11-20T07:04:08;3.47;;;3.27;;
7193;SDS011;3638;48.820;9.244;2022-11-20T07:06:35;4.17;;;3.77;;
7193;SDS011;3638;48.820;9.244;2022-11-20T07:09:02;3.80;;;3.50;;
7193;SDS011;3638;48.820;9.244;2022-11-20T07:11:29;3.90;;;3.43;;
7193;SDS011;3638;48.820;9.244;2022-11-20T07:13:56;3.73;;;3.43;;
7193;SDS011;3638;48.820;9.244;2022-11-20T07:16:24;3.80;;;3.50;;
7193;SDS011;3638;48.820;9.244;2022-11-20T07:18:52;3.90;;;3.53;;
7193;SDS011;3638;48.820;9.244;2022-11-20T07:21:19;3.80;;;3.50;;
7193;SDS011;3638;48.820;9.244;2022-11-20T07:23:46;3.60;;;3.30;;
7193;SDS011;3638;48.820;9.244;2022-11-20T07:26:13;3.70;;;3.40;;
7193;SDS011;3638;48.820;9.244;2022-11-20T07:28:39;3.90;;;3.60;;
7193;SDS011;3638;48.820;9.244;2022-11-20T07:31:10;3.83;;;3.30;;
7193;SDS011;3638;48.820;9.244;2022-11-20T07:33:39;3.83;;;3.50;;
7193;SDS011;3638;48.820;9.244;2022-11-20T07:36:06;3.70;;;3.37;;
7193;SDS011;3638;48.820;9.244;2022-11-20T07:38:34;3.73;;;3.43;;
7193;SDS011;3638;48.820;9.244;2022-11-20T07:41:01;4.23;;;3.07;;
7193;SDS011;3638;48.820;9.244;2022-11-20T07:43:27;5.40;;;3.73;;
7193;SDS011;3638;48.820;9.244;2022-11-20T07:45:55;3.63;;;3.33;;
7193;SDS011;3638;48.820;9.244;2022-11-20T07:48:23;4.10;;;3.60;;
7193;SDS011;3638;48.820;9.244;2022-11-20T07:50:54;3.57;;;3.30;;
7193;SDS011;3638;48.820;9.244;2022-11-20T07:53:22;3.53;;;3.23;;
7193;SDS011;3638;48.820;9.244;2022-11-20T07:55:49;3.97;;;3.30;;
7193;SDS011;3638;48.820;9.244;2022-11-20T07:58:17;3.57;;;3.27;;
7193;SDS011;3638;48.820;9.244;2022-11-20T08:00:45;3.87;;;3.10;;
7193;SDS011;3638;48.820;9.244;2022-11-20T08:03:12;3.90;;;3.37;;
7193;SDS011;3638;48.820;9.244;2022-11-20T08:05:39;4.20;;;3.60;;
7193;SDS011;3638;48.820;9.244;2022-11-20T08:08:07;3.47;;;3.13;;
7193;SDS011;3638;48.820;9.244;2022-11-20T08:10:34;3.60;;;3.30;;
7193;SDS011;3638;48.820;9.244;2022-11-20T08:13:01;3.90;;;3.50;;
7193;SDS011;3638;48.820;9.244;2022-11-20T08:15:47;3.63;;;2.93;;
7193;SDS011;3638;48.820;9.244;2022-11-20T08:18:16;3.77;;;3.33;;
7193;SDS011;3638;48.820;9.244;2022-11-20T08:20:43;3.40;;;3.10;;
7193;SDS011;3638;48.820;9.244;2022-11-20T08:23:12;3.23;;;2.97;;
7193;SDS011;3638;48.820;9.244;2022-11-20T08:25:39;4.73;;;3.47;;
7193;SDS011;3638;48.820;9.244;2022-11-20T08:28:07;3.30;;;3.07;;
7193;SDS011;3638;48.820;9.244;2022-11-20T08:30:35;4.40;;;3.10;;
7193;SDS011;3638;48.820;9.244;2022-11-20T08:33:03;3.07;;;2.77;;
7193;SDS011;3638;48.820;9.244;2022-11-20T08:35:33;3.43;;;2.90;;
7193;SDS011;3638;48.820;9.244;2022-11-20T08:38:01;3.10;;;2.83;;
7193;SDS011;3638;48.820;9.244;2022-11-20T08:40:30;3.53;;;3.03;;
7193;SDS011;3638;48.820;9.244;2022-11-20T08:42:57;3.90;;;3.10;;
7193;SDS011;3638;48.820;9.244;2022-11-20T08:45:25;3.87;;;3.10;;
7193;SDS011;3638;48.820;9.244;2022-11-20T08:47:52;3.50;;;2.90;;
7193;SDS011;3638;48.820;9.244;2022-11-20T08:50:20;3.57;;;3.27;;
7193;SDS011;3638;48.820;9.244;2022-11-20T08:52:46;3.30;;;3.00;;
7193;SDS011;3638;48.820;9.244;2022-11-20T08:55:14;2.93;;;2.67;;
7193;SDS011;3638;48.820;9.244;2022-11-20T08:57:43;3.13;;;2.83;;
7193;SDS011;3638;48.820;9.244;2022-11-20T09:00:10;3.37;;;3.07;;
7193;SDS011;3638;48.820;9.244;2022-11-20T09:02:39;4.53;;;3.40;;
7193;SDS011;3638;48.820;9.244;2022-11-20T09:05:06;6.10;;;4.53;;
7193;SDS011;3638;48.820;9.244;2022-11-20T09:07:33;16.47;;;11.60;;
7193;SDS011;3638;48.820;9.244;2022-11-20T09:10:00;11.73;;;9.43;;
7193;SDS011;3638;48.820;9.244;2022-11-20T09:12:28;9.53;;;7.87;;
7193;SDS011;3638;48.820;9.244;2022-11-20T09:14:56;4.63;;;3.50;;
7193;SDS011;3638;48.820;9.244;2022-11-20T09:17:23;3.00;;;2.70;;
7193;SDS011;3638;48.820;9.244;2022-11-20T09:19:51;3.13;;;2.93;;
7193;SDS011;3638;48.820;9.244;2022-11-20T09:22:18;2.70;;;2.50;;
7193;SDS011;3638;48.820;9.244;2022-11-20T09:24:45;5.20;;;4.80;;
7193;SDS011;3638;48.820;9.244;2022-11-20T09:27:12;2.90;;;2.70;;
7193;SDS011;3638;48.820;9.244;2022-11-20T09:29:39;2.70;;;2.57;;
7193;SDS011;3638;48.820;9.244;2022-11-20T09:32:08;2.80;;;2.60;;
7193;SDS011;3638;48.820;9.244;2022-11-20T09:34:35;3.00;;;2.80;;
7193;SDS011;3638;48.820;9.244;2022-11-20T09:37:01;2.20;;;2.10;;
7193;SDS011;3638;48.820;9.244;2022-11-20T09:39:28;1.87;;;1.77;;
7193;SDS011;3638;48.820;9.244;2022-11-20T09:41:59;2.30;;;2.10;;
7193;SDS011;3638;48.820;9.244;2022-11-20T09:44:40;1.90;;;1.80;;
7193;SDS011;3638;48.820;9.244;2022-11-20T09:47:25;1.80;;;1.70;;
7193;SDS011;3638;48.820;9.244;2022-11-20T09:50:05;2.37;;;2.17;;
7193;SDS011;3638;48.820;9.244;2022-11-20T09:52:49;2.00;;;1.90;;
7193;SDS011;3638;48.820;9.244;2022-11-20T09:55:43;1.90;;;1.80;;
7193;SDS011;3638;48.820;9.244;2022-11-20T09:58:14;2.00;;;1.90;;
7193;SDS011;3638;48.820;9.244;2022-11-20T10:00:54;1.87;;;1.77;;
7193;SDS011;3638;48.820;9.244;2022-11-20T10:03:33;2.07;;;1.97;;
7193;SDS011;3638;48.820;9.244;2022-11-20T10:06:09;2.00;;;1.90;;
7193;SDS011;3638;48.820;9.244;2022-11-20T10:08:43;2.30;;;2.10;;
7193;SDS011;3638;48.820;9.244;2022-11-20T10:11:17;2.13;;;2.03;;
7193;SDS011;3638;48.820;9.244;2022-11-20T10:13:57;4.47;;;2.87;;
7193;SDS011;3638;48.820;9.244;2022-11-20T10:16:40;2.10;;;2.00;;
7193;SDS011;3638;48.820;9.244;2022-11-20T10:19:27;2.10;;;1.87;;
7193;SDS011;3638;48.820;9.244;2022-11-20T10:22:13;1.90;;;1.80;;
7193;SDS011;3638;48.820;9.244;2022-11-20T10:24:59;1.80;;;1.70;;
7193;SDS011;3638;48.820;9.244;2022-11-20T10:27:38;2.10;;;2.00;;
7193;SDS011;3638;48.820;9.244;2022-11-20T10:30:18;2.00;;;1.90;;
7193;SDS011;3638;48.820;9.244;2022-11-20T10:32:50;2.00;;;1.90;;
7193;SDS011;3638;48.820;9.244;2022-11-20T10:35:23;2.27;;;1.77;;
7193;SDS011;3638;48.820;9.244;2022-11-20T10:37:59;2.30;;;2.20;;
7193;SDS011;3638;48.820;9.244;2022-11-20T10:40:30;2.40;;;2.30;;
7193;SDS011;3638;48.820;9.244;2022-11-20T10:43:01;2.20;;;2.10;;
7193;SDS011;3638;48.820;9.244;2022-11-20T10:45:38;2.80;;;2.60;;
7193;SDS011;3638;48.820;9.244;2022-11-20T10:48:17;2.03;;;1.93;;
7193;SDS011;3638;48.820;9.244;2022-11-20T10:50:57;2.83;;;2.63;;
7193;SDS011;3638;48.820;9.244;2022-11-20T10:56:38;2.10;;;2.00;;
7193;SDS011;3638;48.820;9.244;2022-11-20T10:59:14;2.00;;;1.90;;
7193;SDS011;3638;48.820;9.244;2022-11-20T11:02:15;2.53;;;2.43;;
7193;SDS011;3638;48.820;9.244;2022-11-20T11:04:45;2.20;;;2.10;;
7193;SDS011;3638;48.820;9.244;2022-11-20T11:07:15;2.70;;;2.50;;
7193;SDS011;3638;48.820;9.244;2022-11-20T11:09:46;3.47;;;2.83;;
7193;SDS011;3638;48.820;9.244;2022-11-20T11:12:16;3.53;;;3.23;;
7193;SDS011;3638;48.820;9.244;2022-11-20T11:14:44;3.20;;;2.70;;
7193;SDS011;3638;48.820;9.244;2022-11-20T11:17:24;2.97;;;2.77;;
7193;SDS011;3638;48.820;9.244;2022-11-20T11:19:58;3.30;;;3.00;;
7193;SDS011;3638;48.820;9.244;2022-11-20T11:22:28;3.20;;;2.90;;
7193;SDS011;3638;48.820;9.244;2022-11-20T11:24:56;3.23;;;2.63;;
7193;SDS011;3638;48.820;9.244;2022-11-20T11:27:23;3.03;;;2.83;;
7193;SDS011;3638;48.820;9.244;2022-11-20T11:29:50;2.40;;;2.20;;
7193;SDS011;3638;48.820;9.244;2022-11-20T11:32:37;2.20;;;2.10;;
7193;SDS011;3638;48.820;9.244;2022-11-20T11:35:06;2.20;;;2.10;;
7193;SDS011;3638;48.820;9.244;2022-11-20T11:37:47;2.47;;;2.27;;
7193;SDS011;3638;48.820;9.244;2022-11-20T11:40:14;2.60;;;2.40;;
7193;SDS011;3638;48.820;9.244;2022-11-20T11:42:43;2.67;;;2.40;;
7193;SDS011;3638;48.820;9.244;2022-11-20T11:45:18;2.50;;;2.30;;
7193;SDS011;3638;48.820;9.244;2022-11-20T11:47:46;2.70;;;2.50;;
7193;SDS011;3638;48.820;9.244;2022-11-20T11:50:15;2.80;;;2.60;;
7193;SDS011;3638;48.820;9.244;2022-11-20T11:52:48;2.60;;;2.40;;
7193;SDS011;3638;48.820;9.244;2022-11-20T11:55:28;2.83;;;2.63;;
7193;SDS011;3638;48.820;9.244;2022-11-20T11:58:02;2.70;;;2.27;;
7193;SDS011;3638;48.820;9.244;2022-11-20T12:00:37;2.63;;;2.37;;
7193;SDS011;3638;48.820;9.244;2022-11-20T12:03:12;2.90;;;2.50;;
7193;SDS011;3638;48.820;9.244;2022-11-20T12:05:47;2.50;;;2.30;;
7193;SDS011;3638;48.820;9.244;2022-11-20T12:08:19;3.87;;;2.63;;
7193;SDS011;3638;48.820;9.244;2022-11-20T12:10:53;3.03;;;2.57;;
7193;SDS011;3638;48.820;9.244;2022-11-20T12:13:28;2.50;;;2.30;;
7193;SDS011;3638;48.820;9.244;2022-11-20T12:16:08;5.50;;;2.33;;
7193;SDS011;3638;48.820;9.244;2022-11-20T12:18:39;3.17;;;2.50;;
7193;SDS011;3638;48.820;9.244;2022-11-20T12:21:11;4.20;;;3.23;;
7193;SDS011;3638;48.820;9.244;2022-11-20T12:24:03;3.30;;;2.70;;
7193;SDS011;3638;48.820;9.244;2022-11-20T12:26:56;2.57;;;2.33;;
7193;SDS011;3638;48.820;9.244;2022-11-20T12:29:42;2.57;;;2.37;;
7193;SDS011;3638;48.820;9.244;2022-11-20T12:32:22;2.87;;;2.10;;
7193;SDS011;3638;48.820;9.244;2022-11-20T12:35:32;3.97;;;2.57;;
7193;SDS011;3638;48.820;9.244;2022-11-20T12:38:23;3.67;;;2.43;;
7193;SDS011;3638;48.820;9.244;2022-11-20T12:41:39;2.73;;;2.17;;
7193;SDS011;3638;48.820;9.244;2022-11-20T12:44:47;2.53;;;2.33;;
7193;SDS011;3638;48.820;9.244;2022-11-20T12:48:03;3.63;;;2.17;;
7193;SDS011;3638;48.820;9.244;2022-11-20T12:51:18;3.37;;;2.27;;
7193;SDS011;3638;48.820;9.244;2022-11-20T12:54:24;3.97;;;2.80;;
7193;SDS011;3638;48.820;9.244;2022-11-20T12:57:18;2.40;;;2.20;;
7193;SDS011;3638;48.820;9.244;2022-11-20T12:59:55;3.63;;;2.47;;
7193;SDS011;3638;48.820;9.244;2022-11-20T13:02:38;2.70;;;2.30;;
7193;SDS011;3638;48.820;9.244;2022-11-20T13:05:27;2.40;;;2.20;;
7193;SDS011;3638;48.820;9.244;2022-11-20T13:08:04;2.30;;;2.10;;
7193;SDS011;3638;48.820;9.244;2022-11-20T13:10:42;2.33;;;2.13;;
7193;SDS011;3638;48.820;9.244;2022-11-20T13:13:18;3.23;;;2.10;;
7193;SDS011;3638;48.820;9.244;2022-11-20T13:15:56;2.40;;;2.20;;
7193;SDS011;3638;48.820;9.244;2022-11-20T13:18:30;3.20;;;1.90;;
7193;SDS011;3638;48.820;9.244;2022-11-20T13:21:13;3.53;;;2.40;;
7193;SDS011;3638;48.820;9.244;2022-11-20T13:23:42;3.20;;;1.90;;
7193;SDS011;3638;48.820;9.244;2022-11-20T13:26:19;2.37;;;1.90;;
7193;SDS011;3638;48.820;9.244;2022-11-20T13:29:01;2.10;;;1.90;;
7193;SDS011;3638;48.820;9.244;2022-11-20T13:31:38;2.00;;;1.80;;
7193;SDS011;3638;48.820;9.244;2022-11-20T13:34:11;2.13;;;1.90;;
7193;SDS011;3638;48.820;9.244;2022-11-20T13:36:49;3.20;;;1.60;;
7193;SDS011;3638;48.820;9.244;2022-11-20T13:39:23;2.87;;;2.00;;
7193;SDS011;3638;48.820;9.244;2022-11-20T13:41:53;2.17;;;1.73;;
7193;SDS011;3638;48.820;9.244;2022-11-20T13:44:25;2.63;;;1.70;;
7193;SDS011;3638;48.820;9.244;2022-11-20T13:46:57;1.90;;;1.80;;
7193;SDS011;3638;48.820;9.244;2022-11-20T13:49:27;2.17;;;1.80;;
7193;SDS011;3638;48.820;9.244;2022-11-20T13:52:02;2.00;;;1.80;;
7193;SDS011;3638;48.820;9.244;2022-11-20T13:55:02;5.23;;;2.77;;
7193;SDS011;3638;48.820;9.244;2022-11-20T13:57:42;2.57;;;2.03;;
7193;SDS011;3638;48.820;9.244;2022-11-20T14:00:41;2.67;;;1.90;;
7193;SDS011;3638;48.820;9.244;2022-11-20T14:03:30;2.93;;;2.07;;
7193;SDS011;3638;48.820;9.244;2022-11-20T14:06:01;1.93;;;1.77;;
7193;SDS011;3638;48.820;9.244;2022-11-20T14:08:33;2.30;;;2.10;;
7193;SDS011;3638;48.820;9.244;2022-11-20T14:11:12;2.07;;;1.87;;
7193;SDS011;3638;48.820;9.244;2022-11-20T14:13:55;1.90;;;1.80;;
7193;SDS011;3638;48.820;9.244;2022-11-20T14:16:27;2.23;;;1.80;;
7193;SDS011;3638;48.820;9.244;2022-11-20T14:19:00;1.80;;;1.70;;
7193;SDS011;3638;48.820;9.244;2022-11-20T14:21:53;3.37;;;2.10;;
7193;SDS011;3638;48.820;9.244;2022-11-20T14:24:33;3.67;;;2.30;;
7193;SDS011;3638;48.820;9.244;2022-11-20T14:27:00;2.90;;;1.87;;
7193;SDS011;3638;48.820;9.244;2022-11-20T14:29:28;1.90;;;1.80;;
7193;SDS011;3638;48.820;9.244;2022-11-20T14:32:03;2.30;;;2.00;;
7193;SDS011;3638;48.820;9.244;2022-11-20T14:34:32;2.40;;;2.20;;
7193;SDS011;3638;48.820;9.244;2022-11-20T14:37:06;2.83;;;2.23;;
7193;SDS011;3638;48.820;9.244;2022-11-20T14:39:40;2.30;;;2.10;;
7193;SDS011;3638;48.820;9.244;2022-11-20T14:42:14;3.53;;;2.40;;
7193;SDS011;3638;48.820;9.244;2022-11-20T14:44:43;2.60;;;2.23;;
7193;SDS011;3638;48.820;9.244;2022-11-20T14:47:11;2.80;;;2.43;;
7193;SDS011;3638;48.820;9.244;2022-11-20T14:49:42;3.37;;;2.17;;
7193;SDS011;3638;48.820;9.244;2022-11-20T14:52:11;4.70;;;2.90;;
7193;SDS011;3638;48.820;9.244;2022-11-20T14:54:45;2.70;;;2.50;;
7193;SDS011;3638;48.820;9.244;2022-11-20T14:57:21;2.87;;;2.40;;
7193;SDS011;3638;48.820;9.244;2022-11-20T14:59:50;3.07;;;2.67;;
7193;SDS011;3638;48.820;9.244;2022-11-20T15:02:29;4.57;;;2.37;;
7193;SDS011;3638;48.820;9.244;2022-11-20T15:04:58;3.87;;;2.70;;
7193;SDS011;3638;48.820;9.244;2022-11-20T15:07:29;15.93;;;11.10;;
7193;SDS011;3638;48.820;9.244;2022-11-20T15:10:00;6.93;;;5.73;;
7193;SDS011;3638;48.820;9.244;2022-11-20T15:12:29;4.00;;;3.00;;
7193;SDS011;3638;48.820;9.244;2022-11-20T15:14:58;5.57;;;3.50;;
7193;SDS011;3638;48.820;9.244;2022-11-20T15:17:26;4.37;;;3.40;;
7193;SDS011;3638;48.820;9.244;2022-11-20T15:19:53;4.03;;;3.37;;
7193;SDS011;3638;48.820;9.244;2022-11-20T15:22:23;4.07;;;3.17;;
7193;SDS011;3638;48.820;9.244;2022-11-20T15:24:50;4.90;;;3.63;;
7193;SDS011;3638;48.820;9.244;2022-11-20T15:27:16;3.57;;;3.27;;
7193;SDS011;3638;48.820;9.244;2022-11-20T15:29:43;3.53;;;3.03;;
7193;SDS011;3638;48.820;9.244;2022-11-20T15:32:11;4.97;;;3.10;;
7193;SDS011;3638;48.820;9.244;2022-11-20T15:34:37;3.33;;;3.03;;
7193;SDS011;3638;48.820;9.244;2022-11-20T15:37:04;4.57;;;3.30;;
7193;SDS011;3638;48.820;9.244;2022-11-20T15:39:33;3.10;;;2.77;;
7193;SDS011;3638;48.820;9.244;2022-11-20T15:41:59;2.57;;;2.30;;